Time;durP1;ratioP1;P1;durP2;ratioP2;P2;SDS_P1;SDS_P2;PMS_P1;PMS_P2;Temp;Humidity;BMP_temperature;BMP_pressure;BME280_temperature;BME280_humidity;BME280_pressure;Samples;Min_cycle;Max_cycle;Signal;HPM_P1;HPM_P2
2023/08/29 00:01:47;;;;;;;0.30;0.30;;;;;;;15.18;81.04;101413.97;5013175;28;97087;-27
2023/08/29 00:04:14;;;;;;;1.92;0.52;;;;;;;15.21;80.94;101419.19;5013089;28;96573;-27
2023/08/29 00:06:39;;;;;;;1.25;0.73;;;;;;;15.15;80.94;101411.44;5012218;28;96898;-27
2023/08/29 00:09:05;;;;;;;1.17;0.47;;;;;;;15.11;80.82;101412.66;5012575;28;97460;-27
2023/08/29 00:11:30;;;;;;;1.27;0.70;;;;;;;15.09;80.91;101411.91;5013052;28;97825;-27
2023/08/29 00:13:56;;;;;;;0.93;0.43;;;;;;;15.09;81.24;101417.34;5012458;28;96604;-27
2023/08/29 00:16:22;;;;;;;0.93;0.40;;;;;;;15.11;81.27;101417.22;5012141;28;96827;-26
2023/08/29 00:18:47;;;;;;;2.33;0.68;;;;;;;15.07;81.37;101419.31;5012999;28;97307;-27
2023/08/29 00:21:13;;;;;;;0.38;0.30;;;;;;;15.03;81.43;101413.19;5012780;28;97966;-27
2023/08/29 00:23:38;;;;;;;1.17;0.63;;;;;;;15.03;81.44;101412.31;5012690;28;96605;-27
2023/08/29 00:26:03;;;;;;;1.42;0.52;;;;;;;15.00;81.63;101412.56;5012905;28;96811;-26
2023/08/29 00:28:29;;;;;;;0.50;0.50;;;;;;;14.98;81.62;101411.78;5012634;28;97501;-28
2023/08/29 00:30:54;;;;;;;2.13;0.70;;;;;;;14.96;81.67;101402.81;5012734;28;99273;-27
2023/08/29 00:33:20;;;;;;;0.80;0.50;;;;;;;14.94;81.43;101405.66;5012650;28;96496;-27
2023/08/29 00:35:47;;;;;;;1.20;0.82;;;;;;;14.92;81.66;101409.47;5012516;28;96749;-27
2023/08/29 00:38:12;;;;;;;0.77;0.57;;;;;;;14.91;81.59;101396.84;5011300;28;99043;-26
2023/08/29 00:40:37;;;;;;;1.08;0.63;;;;;;;14.88;81.73;101395.19;5012507;28;97808;-27
2023/08/29 00:43:03;;;;;;;1.23;0.70;;;;;;;14.86;81.99;101398.03;5012721;28;96440;-27
2023/08/29 00:45:32;;;;;;;2.47;0.80;;;;;;;14.86;82.01;101398.03;5012360;28;96829;-27
2023/08/29 00:47:59;;;;;;;0.90;0.63;;;;;;;14.87;82.01;101387.97;5010845;28;100806;-27
2023/08/29 00:50:25;;;;;;;0.50;0.38;;;;;;;14.81;81.85;101383.84;5010817;28;101102;-28
2023/08/29 00:52:54;;;;;;;0.47;0.47;;;;;;;14.78;81.98;101384.06;5010885;28;96758;-27
2023/08/29 00:55:20;;;;;;;0.63;0.30;;;;;;;14.82;82.22;101396.47;5011212;28;97881;-26
2023/08/29 00:57:45;;;;;;;2.67;0.68;;;;;;;14.80;82.30;101387.56;5012286;28;97959;-27
2023/08/29 01:00:11;;;;;;;1.23;0.60;;;;;;;14.75;81.91;101397.03;5012110;28;98717;-26
2023/08/29 01:02:37;;;;;;;0.30;0.22;;;;;;;14.65;83.00;101381.31;5011926;28;96659;-27
2023/08/29 01:05:03;;;;;;;0.95;0.60;;;;;;;14.68;82.73;101382.09;5012061;28;96784;-27
2023/08/29 01:07:29;;;;;;;2.35;0.30;;;;;;;14.66;82.82;101390.41;5011045;28;99327;-26
2023/08/29 01:09:54;;;;;;;0.55;0.50;;;;;;;14.64;82.59;101385.03;5012197;28;97843;-27
2023/08/29 01:12:20;;;;;;;0.43;0.40;;;;;;;14.67;82.86;101391.25;5012241;28;96680;-26
2023/08/29 01:14:51;;;;;;;1.08;0.70;;;;;;;14.66;82.82;101393.13;5012319;28;96811;-26
2023/08/29 01:17:43;;;;;;;1.00;0.47;;;;;;;14.57;82.73;101378.25;5011625;28;98017;-28
2023/08/29 01:20:12;;;;;;;0.50;0.30;;;;;;;14.62;82.72;101391.56;5012502;28;98286;-26
2023/08/29 01:23:00;;;;;;;0.30;0.30;;;;;;;14.57;82.71;101383.72;5010688;28;96611;-27
2023/08/29 01:25:44;;;;;;;0.85;0.60;;;;;;;14.57;82.76;101385.59;5012014;28;96672;-26
2023/08/29 01:28:10;;;;;;;0.95;0.50;;;;;;;14.52;82.95;101374.97;5011082;28;99512;-27
2023/08/29 01:30:38;;;;;;;0.70;0.40;;;;;;;14.52;82.75;101382.28;5011738;28;97855;-28
2023/08/29 01:33:03;;;;;;;1.35;0.60;;;;;;;14.49;83.06;101372.47;5010368;28;96589;-27
2023/08/29 01:35:29;;;;;;;0.88;0.45;;;;;;;14.47;82.87;101366.22;5012362;28;96744;-26
2023/08/29 01:37:54;;;;;;;1.08;0.57;;;;;;;14.46;83.23;101380.81;5011556;28;96805;-26
2023/08/29 01:40:19;;;;;;;0.75;0.52;;;;;;;14.38;82.99;101366.88;5011445;28;98646;-27
2023/08/29 01:42:45;;;;;;;0.90;0.60;;;;;;;14.43;82.99;101379.19;5011758;28;96643;-27
2023/08/29 01:45:10;;;;;;;1.33;0.57;;;;;;;14.37;83.13;101368.72;5012033;28;96853;-27
2023/08/29 01:47:36;;;;;;;1.48;0.50;;;;;;;14.40;82.85;101379.41;5011641;28;97984;-27
2023/08/29 01:50:03;;;;;;;0.20;0.17;;;;;;;14.33;83.02;101375.34;5011637;28;97993;-27
2023/08/29 01:52:30;;;;;;;2.40;0.75;;;;;;;14.31;83.52;101382.75;5010984;28;96487;-27
2023/08/29 01:54:56;;;;;;;0.70;0.60;;;;;;;14.28;83.14;101374.81;5010288;28;97034;-27
2023/08/29 01:57:23;;;;;;;0.65;0.43;;;;;;;14.35;82.92;101378.84;5009662;28;101052;-27
2023/08/29 01:59:50;;;;;;;0.20;0.20;;;;;;;14.28;83.13;101384.81;5009916;28;100785;-26
2023/08/29 02:02:15;;;;;;;1.05;0.52;;;;;;;14.30;83.21;101388.31;5010015;28;96585;-26
2023/08/29 02:04:41;;;;;;;0.60;0.47;;;;;;;14.23;83.52;101382.44;5011602;28;96754;-27
2023/08/29 02:07:06;;;;;;;0.75;0.60;;;;;;;14.22;83.18;101372.50;5011354;28;97920;-26
2023/08/29 02:09:31;;;;;;;0.55;0.38;;;;;;;14.22;83.27;101380.66;5011728;28;97802;-27
2023/08/29 02:11:57;;;;;;;0.40;0.40;;;;;;;14.24;83.38;101384.16;5011481;28;96548;-26
2023/08/29 02:14:22;;;;;;;0.98;0.55;;;;;;;14.21;82.96;101384.38;5011561;28;96774;-27
2023/08/29 02:16:48;;;;;;;0.60;0.38;;;;;;;14.20;83.46;101385.34;5010043;28;99281;-27
2023/08/29 02:19:13;;;;;;;0.70;0.50;;;;;;;14.18;83.41;101385.47;5014744;28;97760;-27
2023/08/29 02:21:39;;;;;;;0.93;0.57;;;;;;;14.14;83.61;101378.47;5014467;28;96593;-26
2023/08/29 02:24:05;;;;;;;2.10;0.50;;;;;;;14.12;83.45;101379.56;5014873;28;96788;-26
2023/08/29 02:26:30;;;;;;;0.30;0.28;;;;;;;14.11;83.55;101375.06;5013940;28;97893;-27
2023/08/29 02:28:55;;;;;;;1.35;0.65;;;;;;;14.13;83.59;101387.59;5014513;28;97328;-27
2023/08/29 02:31:22;;;;;;;0.50;0.50;;;;;;;14.08;83.51;101376.16;5014447;28;96602;-28
2023/08/29 02:33:47;;;;;;;0.60;0.30;;;;;;;14.10;83.46;101385.09;5013353;28;96919;-27
2023/08/29 02:36:13;;;;;;;0.52;0.40;;;;;;;14.06;83.85;101385.41;5014092;28;98805;-27
2023/08/29 02:38:38;;;;;;;2.85;0.75;;;;;;;14.04;83.76;101385.53;5014398;28;97240;-27
2023/08/29 02:41:05;;;;;;;1.08;0.50;;;;;;;14.03;83.88;101389.22;5013955;28;96786;-28
2023/08/29 02:43:31;;;;;;;0.82;0.47;;;;;;;14.01;83.97;101388.44;5012944;28;96829;-27
2023/08/29 02:45:57;;;;;;;1.23;0.40;;;;;;;13.98;84.58;101394.97;5014485;28;98044;-26
2023/08/29 02:48:23;;;;;;;1.63;0.50;;;;;;;13.96;84.19;101385.16;5012733;28;99923;-27
2023/08/29 02:50:49;;;;;;;1.45;0.77;;;;;;;13.98;83.83;101396.81;5012875;28;96576;-27
2023/08/29 02:53:18;;;;;;;0.75;0.52;;;;;;;13.93;83.80;101391.69;5014220;28;96934;-26
2023/08/29 02:55:44;;;;;;;0.95;0.50;;;;;;;13.95;84.15;101394.31;5012440;28;101055;-27
2023/08/29 02:58:10;;;;;;;1.27;0.52;;;;;;;13.91;83.96;101382.75;5014570;28;97816;-26
2023/08/29 03:00:35;;;;;;;1.23;0.60;;;;;;;13.95;84.08;101399.75;5013951;28;96566;-26
2023/08/29 03:03:00;;;;;;;0.38;0.30;;;;;;;13.96;84.05;101398.78;5014267;28;96434;-28
2023/08/29 03:05:26;;;;;;;0.73;0.45;;;;;;;13.90;84.51;101397.34;5013523;28;97968;-27
2023/08/29 03:07:51;;;;;;;1.20;0.38;;;;;;;13.88;84.54;101404.75;5013972;28;97877;-27
2023/08/29 03:10:17;;;;;;;0.70;0.55;;;;;;;13.91;84.58;101409.97;5013538;28;96775;-28
2023/08/29 03:12:43;;;;;;;0.22;0.22;;;;;;;13.92;84.36;101400.84;5013860;28;96824;-27
2023/08/29 03:15:08;;;;;;;0.50;0.45;;;;;;;13.88;84.17;101399.28;5013777;28;97416;-27
2023/08/29 03:17:34;;;;;;;0.80;0.52;;;;;;;13.90;84.63;101401.94;5012855;28;99342;-27
2023/08/29 03:20:00;;;;;;;0.60;0.40;;;;;;;13.91;84.60;101407.25;5013823;28;96494;-28
2023/08/29 03:22:26;;;;;;;0.50;0.38;;;;;;;13.97;84.58;101415.03;5014526;28;96732;-27
2023/08/29 03:24:51;;;;;;;1.23;0.70;;;;;;;13.99;84.83;101404.00;5013293;28;99393;-26
2023/08/29 03:27:16;;;;;;;0.77;0.47;;;;;;;13.98;84.88;101403.13;5013379;28;99660;-26
2023/08/29 03:29:42;;;;;;;0.82;0.60;;;;;;;13.97;85.01;101389.66;5012557;28;96478;-27
2023/08/29 03:32:07;;;;;;;1.52;0.70;;;;;;;14.01;84.74;101394.78;5013361;28;96840;-26
2023/08/29 03:34:33;;;;;;;2.30;0.60;;;;;;;14.03;85.00;101398.25;5013294;28;99349;-26
2023/08/29 03:36:58;;;;;;;0.80;0.60;;;;;;;14.07;84.85;101395.34;5013113;28;99222;-26
2023/08/29 03:39:24;;;;;;;0.98;0.63;;;;;;;14.08;85.16;101399.81;5013276;28;96693;-26
2023/08/29 03:41:50;;;;;;;0.75;0.50;;;;;;;14.12;85.43;101410.38;5013511;28;96768;-26
2023/08/29 03:44:15;;;;;;;1.27;0.68;;;;;;;14.11;85.87;101399.59;5013329;28;97999;-26
2023/08/29 03:46:40;;;;;;;1.20;0.70;;;;;;;14.14;85.85;101408.44;5013703;28;97754;-26
2023/08/29 03:49:06;;;;;;;1.40;0.77;;;;;;;14.15;85.68;101402.00;5013655;28;96692;-27
2023/08/29 03:51:31;;;;;;;1.02;0.60;;;;;;;14.15;85.64;101392.97;5013438;28;96772;-27
2023/08/29 03:53:56;;;;;;;1.23;0.68;;;;;;;14.19;85.98;101409.00;5012980;28;98071;-26
2023/08/29 03:56:22;;;;;;;0.90;0.65;;;;;;;14.20;85.87;101409.88;5013073;28;97741;-27
2023/08/29 03:58:49;;;;;;;1.27;0.60;;;;;;;14.23;85.89;101412.41;5011875;28;96680;-27
2023/08/29 04:01:14;;;;;;;1.17;0.70;;;;;;;14.22;85.81;101397.00;5013071;28;96843;-28
2023/08/29 04:03:40;;;;;;;2.85;0.80;;;;;;;14.28;85.93;101410.25;5012707;28;99401;-26
2023/08/29 04:06:05;;;;;;;1.63;0.65;;;;;;;14.25;85.52;101399.53;5013032;28;97132;-27
2023/08/29 04:08:32;;;;;;;0.63;0.55;;;;;;;14.26;85.63;101398.56;5011740;28;96581;-26
2023/08/29 04:10:58;;;;;;;1.40;0.90;;;;;;;14.31;85.99;101398.25;5011910;28;96860;-27
2023/08/29 04:13:23;;;;;;;1.08;0.47;;;;;;;14.28;85.96;101382.97;5012899;28;97585;-26
2023/08/29 04:15:49;;;;;;;2.33;0.60;;;;;;;14.36;85.92;101385.19;5012235;28;97846;-27
2023/08/29 04:18:15;;;;;;;0.70;0.47;;;;;;;14.38;85.85;101385.94;5012074;28;96847;-26
2023/08/29 04:20:41;;;;;;;2.47;0.75;;;;;;;14.34;85.65;101379.81;5011519;28;96932;-27
2023/08/29 04:23:07;;;;;;;0.90;0.57;;;;;;;14.40;85.76;101390.31;5012218;28;98510;-27
2023/08/29 04:25:36;;;;;;;0.98;0.65;;;;;;;14.42;85.37;101387.50;5013063;28;97177;-27
2023/08/29 04:28:03;;;;;;;1.48;0.73;;;;;;;14.42;86.15;101380.19;5011150;28;96772;-27
2023/08/29 04:30:28;;;;;;;1.10;0.70;;;;;;;14.44;85.77;101380.06;5011216;28;96827;-27
2023/08/29 04:32:53;;;;;;;1.27;0.80;;;;;;;14.39;86.63;101371.31;5012617;28;97558;-27
2023/08/29 04:35:19;;;;;;;1.95;0.90;;;;;;;14.44;86.29;101369.16;5013115;28;97764;-27
2023/08/29 04:37:46;;;;;;;1.00;0.75;;;;;;;14.48;86.32;101373.41;5012075;28;96774;-26
2023/08/29 04:40:11;;;;;;;1.52;0.80;;;;;;;14.46;86.00;101369.91;5011258;28;96865;-28
2023/08/29 04:42:37;;;;;;;0.95;0.73;;;;;;;14.50;85.79;101365.16;5012065;28;98035;-27
2023/08/29 04:45:06;;;;;;;2.33;0.90;;;;;;;14.53;85.72;101362.19;5010771;28;100922;-26
2023/08/29 04:47:32;;;;;;;3.88;0.73;;;;;;;14.55;85.93;101358.41;5011057;28;96731;-27
2023/08/29 04:49:58;;;;;;;3.35;0.93;;;;;;;14.56;85.84;101362.00;5012478;28;96786;-27
2023/08/29 04:52:24;;;;;;;2.65;0.82;;;;;;;14.60;85.88;101363.53;5011669;28;99640;-27
2023/08/29 04:54:49;;;;;;;2.35;1.23;;;;;;;14.60;85.63;101352.63;5012394;28;97899;-26
2023/08/29 04:57:15;;;;;;;1.15;0.85;;;;;;;14.64;85.90;101359.63;5012308;28;96478;-26
2023/08/29 04:59:40;;;;;;;3.58;0.88;;;;;;;14.60;85.80;101349.91;5012719;28;96798;-27
2023/08/29 05:02:07;;;;;;;2.17;1.23;;;;;;;14.64;85.98;101355.03;5012225;28;97417;-27
2023/08/29 05:04:33;;;;;;;2.47;1.08;;;;;;;14.65;86.41;101355.91;5010578;28;99133;-26
2023/08/29 05:06:58;;;;;;;1.77;1.13;;;;;;;14.63;86.78;101352.41;5011505;28;96771;-27
2023/08/29 05:09:24;;;;;;;2.17;1.10;;;;;;;14.64;86.42;101340.53;5011075;28;96859;-27
2023/08/29 05:11:50;;;;;;;1.42;0.85;;;;;;;14.68;86.17;101343.91;5010552;28;100915;-27
2023/08/29 05:14:15;;;;;;;0.85;0.77;;;;;;;14.71;86.32;101339.13;5011853;28;99122;-27
2023/08/29 05:16:40;;;;;;;1.33;0.85;;;;;;;14.70;86.21;101339.22;5011230;28;96963;-26
2023/08/29 05:19:07;;;;;;;2.58;1.27;;;;;;;14.76;86.22;101342.41;5012144;28;96765;-27
2023/08/29 05:21:33;;;;;;;2.38;0.98;;;;;;;14.78;86.31;101336.84;5010356;28;101168;-27
2023/08/29 05:23:59;;;;;;;1.70;0.93;;;;;;;14.80;86.23;101340.31;5010842;28;101142;-26
2023/08/29 05:26:25;;;;;;;2.38;1.17;;;;;;;14.82;86.04;101335.63;5011947;28;96560;-26
2023/08/29 05:28:50;;;;;;;2.33;0.98;;;;;;;14.77;86.28;101325.03;5010150;28;97733;-27
2023/08/29 05:31:16;;;;;;;1.30;0.98;;;;;;;14.88;85.91;101337.06;5011208;28;97986;-26
2023/08/29 05:33:41;;;;;;;1.70;1.10;;;;;;;14.90;86.13;101335.97;5011841;28;97807;-27
2023/08/29 05:36:06;;;;;;;1.70;1.02;;;;;;;14.87;85.71;101333.44;5011727;28;96532;-26
2023/08/29 05:38:32;;;;;;;3.22;1.38;;;;;;;14.91;86.12;101340.41;5011639;28;96816;-27
2023/08/29 05:40:57;;;;;;;3.35;1.20;;;;;;;14.88;85.83;101328.88;5011816;28;97763;-26
2023/08/29 05:43:23;;;;;;;1.65;1.08;;;;;;;14.94;85.42;101333.84;5011334;28;99159;-27
2023/08/29 05:45:48;;;;;;;1.77;1.10;;;;;;;14.98;86.05;101338.13;5011663;28;96530;-26
2023/08/29 05:48:13;;;;;;;2.00;0.95;;;;;;;15.03;86.52;101338.66;5010124;28;96774;-27
2023/08/29 05:50:40;;;;;;;3.05;0.95;;;;;;;14.99;86.07;101329.84;5009098;28;98011;-30
2023/08/29 05:53:05;;;;;;;3.90;1.55;;;;;;;15.04;86.10;101338.56;5009621;28;100943;-28
2023/08/29 05:55:31;;;;;;;2.17;1.20;;;;;;;15.08;85.63;101347.38;5012251;28;97108;-27
2023/08/29 05:57:56;;;;;;;1.73;1.00;;;;;;;15.06;86.10;101339.31;5012312;28;97083;-30
2023/08/29 06:00:21;;;;;;;4.68;0.90;;;;;;;15.14;85.67;101340.63;5012425;28;97592;-29
2023/08/29 06:02:47;;;;;;;1.85;0.80;;;;;;;15.12;86.07;101338.00;5013541;28;97746;-26
2023/08/29 06:05:13;;;;;;;1.50;0.95;;;;;;;15.14;85.63;101344.22;5013410;28;96725;-26
2023/08/29 06:07:38;;;;;;;5.60;1.20;;;;;;;15.22;86.05;101346.38;5014850;28;96961;-27
2023/08/29 06:10:06;;;;;;;1.50;0.93;;;;;;;15.23;85.92;101351.72;5014704;28;99328;-27
2023/08/29 06:12:31;;;;;;;2.33;1.10;;;;;;;15.23;85.80;101343.53;5014976;28;100001;-28
2023/08/29 06:14:57;;;;;;;2.08;1.10;;;;;;;15.22;85.88;101330.88;5013499;28;96571;-27
2023/08/29 06:17:22;;;;;;;1.70;1.00;;;;;;;15.28;85.46;101345.94;5013959;28;96897;-27
2023/08/29 06:19:47;;;;;;;1.95;0.82;;;;;;;15.39;85.68;101339.66;5014165;28;97945;-27
2023/08/29 06:22:13;;;;;;;3.53;1.27;;;;;;;15.42;85.51;101339.44;5014562;28;97762;-26
2023/08/29 06:24:38;;;;;;;1.90;1.05;;;;;;;15.43;85.41;101330.28;5014756;28;96510;-26
2023/08/29 06:27:04;;;;;;;2.20;1.17;;;;;;;15.50;85.50;101331.56;5014413;28;96856;-27
2023/08/29 06:29:30;;;;;;;1.38;0.82;;;;;;;15.57;86.05;101346.50;5014662;28;97998;-27
2023/08/29 06:31:56;;;;;;;3.13;1.10;;;;;;;15.63;85.50;101343.28;5013077;28;101581;-26
2023/08/29 06:34:21;;;;;;;3.63;0.98;;;;;;;15.76;85.10;101345.16;5014605;28;96450;-28
2023/08/29 06:36:46;;;;;;;0.95;0.80;;;;;;;15.84;84.82;101345.44;5014928;28;96655;-26
2023/08/29 06:39:12;;;;;;;5.55;0.73;;;;;;;15.93;84.69;101333.81;5014352;28;96823;-26
2023/08/29 06:41:37;;;;;;;0.88;0.60;;;;;;;16.03;84.36;101332.13;5014164;28;99006;-26
2023/08/29 06:44:02;;;;;;;2.05;0.88;;;;;;;16.04;84.43;101322.03;5013880;28;96605;-27
2023/08/29 06:46:28;;;;;;;1.83;0.95;;;;;;;16.12;84.79;101325.94;5014513;28;96726;-27
2023/08/29 06:48:53;;;;;;;1.60;0.70;;;;;;;16.16;84.21;101328.44;5014262;28;97929;-27
2023/08/29 06:51:18;;;;;;;0.98;0.70;;;;;;;16.16;84.04;101325.69;5013852;28;99336;-26
2023/08/29 06:53:44;;;;;;;2.08;1.00;;;;;;;16.08;83.81;101320.84;5014169;28;96627;-26
2023/08/29 06:56:09;;;;;;;2.58;0.75;;;;;;;16.09;83.84;101331.66;5014220;28;96749;-26
2023/08/29 06:58:35;;;;;;;0.98;0.57;;;;;;;16.13;83.88;101340.47;5013854;28;99178;-26
2023/08/29 07:01:00;;;;;;;3.88;0.85;;;;;;;16.08;84.23;101331.75;5014515;28;97602;-26
2023/08/29 07:03:26;;;;;;;2.50;0.98;;;;;;;16.03;84.20;101331.25;5012907;28;96676;-26
2023/08/29 07:05:52;;;;;;;3.72;1.05;;;;;;;16.04;83.99;101325.69;5013749;28;96872;-28
2023/08/29 07:08:18;;;;;;;1.17;0.85;;;;;;;16.17;84.42;101330.19;5012066;28;100986;-26
2023/08/29 07:10:43;;;;;;;1.48;0.85;;;;;;;16.31;84.25;101325.38;5013879;28;97952;-26
2023/08/29 07:13:09;;;;;;;2.65;0.98;;;;;;;16.53;83.68;101327.28;5014247;28;96679;-26
2023/08/29 07:15:34;;;;;;;2.40;1.23;;;;;;;16.73;83.36;101325.72;5013620;28;96767;-26
2023/08/29 07:17:59;;;;;;;2.70;1.30;;;;;;;16.82;82.81;101323.25;5012157;28;97514;-27
2023/08/29 07:20:25;;;;;;;1.88;1.10;;;;;;;17.02;81.99;101330.75;5013601;28;96639;-27
2023/08/29 07:22:50;;;;;;;5.55;1.20;;;;;;;17.07;81.17;101330.38;5013869;28;96799;-26
2023/08/29 07:25:18;;;;;;;2.00;1.10;;;;;;;17.14;81.49;101328.88;5013854;28;96821;-27
2023/08/29 07:27:43;;;;;;;3.17;1.23;;;;;;;17.46;80.74;101326.22;5012095;28;100848;-27
2023/08/29 07:30:14;;;;;;;3.75;1.02;;;;;;;17.80;79.66;101335.28;5013721;28;97260;-28
2023/08/29 07:32:41;;;;;;;2.88;1.13;;;;;;;17.95;78.51;101327.59;5011838;28;96665;-27
2023/08/29 07:35:07;;;;;;;1.50;1.17;;;;;;;18.07;77.75;101320.22;5012182;28;96981;-27
2023/08/29 07:37:32;;;;;;;1.45;1.08;;;;;;;18.22;77.45;101328.97;5013260;28;98006;-27
2023/08/29 07:39:57;;;;;;;3.00;1.25;;;;;;;18.45;77.49;101327.00;5013039;28;97847;-27
2023/08/29 07:42:23;;;;;;;2.17;1.00;;;;;;;18.63;77.40;101317.13;5013590;28;96465;-26
2023/08/29 07:44:48;;;;;;;0.90;0.80;;;;;;;18.79;76.41;101324.91;5013318;28;96816;-26
2023/08/29 07:47:13;;;;;;;5.82;1.25;;;;;;;18.81;76.20;101324.78;5013311;28;97913;-27
2023/08/29 07:49:39;;;;;;;1.40;0.85;;;;;;;18.92;75.74;101323.81;5013457;28;97257;-27
2023/08/29 07:52:04;;;;;;;1.65;0.88;;;;;;;19.05;75.23;101316.22;5013463;28;96589;-26
2023/08/29 07:54:30;;;;;;;2.60;1.00;;;;;;;19.02;74.76;101327.47;5013062;28;96994;-28
2023/08/29 07:56:55;;;;;;;2.17;1.13;;;;;;;19.07;74.97;101325.19;5012587;28;97151;-27
2023/08/29 07:59:22;;;;;;;1.58;0.95;;;;;;;19.09;74.79;101328.66;5013408;28;97233;-28
2023/08/29 08:01:48;;;;;;;2.28;0.93;;;;;;;19.15;75.12;101314.38;5013206;28;96618;-28
2023/08/29 08:04:13;;;;;;;1.88;1.30;;;;;;;19.23;74.51;101317.28;5011699;28;96726;-26
2023/08/29 08:06:39;;;;;;;0.73;0.73;;;;;;;19.18;74.73;101313.22;5013047;28;97952;-27
2023/08/29 08:09:05;;;;;;;1.83;1.00;;;;;;;19.19;74.99;101315.84;5013032;28;97882;-26
2023/08/29 08:11:31;;;;;;;1.20;0.70;;;;;;;19.28;74.97;101322.38;5011535;28;96663;-26
2023/08/29 08:13:56;;;;;;;1.48;0.88;;;;;;;19.18;73.67;101329.72;5013677;28;96748;-27
2023/08/29 08:16:21;;;;;;;2.03;1.08;;;;;;;19.08;73.91;101319.56;5011932;28;97870;-27
2023/08/29 08:18:47;;;;;;;2.50;1.20;;;;;;;19.15;74.47;101327.25;5012520;28;99194;-26
2023/08/29 08:21:12;;;;;;;1.63;0.93;;;;;;;19.29;74.13;101314.00;5012777;28;96536;-27
2023/08/29 08:23:37;;;;;;;2.72;1.15;;;;;;;19.38;73.17;101327.88;5012718;28;96783;-27
2023/08/29 08:26:04;;;;;;;2.45;1.27;;;;;;;19.41;73.17;101316.63;5013110;28;97429;-27
2023/08/29 08:28:29;;;;;;;3.22;1.20;;;;;;;19.52;72.98;101320.13;5012553;28;99144;-26
2023/08/29 08:30:54;;;;;;;2.92;1.30;;;;;;;19.45;73.29;101326.31;5012968;28;96440;-26
2023/08/29 08:33:20;;;;;;;2.10;1.35;;;;;;;19.31;73.54;101316.63;5012739;28;96890;-26
2023/08/29 08:35:45;;;;;;;3.72;1.38;;;;;;;19.28;73.35;101316.88;5012385;28;99023;-26
2023/08/29 08:38:11;;;;;;;2.20;1.30;;;;;;;19.24;73.80;101313.56;5012573;28;97773;-27
2023/08/29 08:40:38;;;;;;;2.03;1.20;;;;;;;19.15;73.79;101308.88;5012599;28;96700;-27
2023/08/29 08:43:09;;;;;;;1.42;0.90;;;;;;;19.13;74.20;101312.78;5011135;28;96871;-27
2023/08/29 08:45:36;;;;;;;1.35;0.75;;;;;;;19.15;73.24;101305.28;5010579;28;98909;-27
2023/08/29 08:48:03;;;;;;;1.15;0.60;;;;;;;19.35;73.00;101307.06;5010885;28;100769;-27
2023/08/29 08:50:28;;;;;;;2.55;0.65;;;;;;;19.52;71.82;101298.16;5012599;28;96593;-27
2023/08/29 08:52:56;;;;;;;1.10;0.70;;;;;;;19.85;71.49;101297.91;5012596;28;96734;-27
2023/08/29 08:55:21;;;;;;;5.75;0.98;;;;;;;20.01;70.73;101297.34;5010658;28;101174;-27
2023/08/29 08:57:47;;;;;;;1.27;0.70;;;;;;;20.25;68.88;101300.53;5011936;28;99899;-26
2023/08/29 09:00:13;;;;;;;1.52;0.75;;;;;;;20.61;69.26;101300.78;5010996;28;96816;-27
2023/08/29 09:02:42;;;;;;;1.63;0.98;;;;;;;20.84;67.17;101297.69;5012692;28;96696;-27
2023/08/29 09:05:08;;;;;;;2.10;1.00;;;;;;;20.95;66.34;101295.59;5010736;28;100729;-27
2023/08/29 09:07:40;;;;;;;0.93;0.60;;;;;;;21.05;65.61;101291.94;5012109;28;97821;-27
2023/08/29 09:10:09;;;;;;;1.42;0.70;;;;;;;21.02;63.37;101283.97;5011609;28;96549;-26
2023/08/29 09:12:55;;;;;;;1.95;0.90;;;;;;;21.24;65.42;101280.81;5011173;28;96800;-27
2023/08/29 09:15:21;;;;;;;1.20;0.55;;;;;;;21.36;64.22;101287.00;5011767;28;99489;-26
2023/08/29 09:17:52;;;;;;;1.15;0.77;;;;;;;21.54;63.42;101285.16;5010051;28;101187;-27
2023/08/29 09:20:18;;;;;;;1.77;0.93;;;;;;;21.84;65.21;101283.06;5010672;28;96693;-27
2023/08/29 09:22:44;;;;;;;1.05;0.80;;;;;;;22.09;64.09;101283.28;5010747;28;96953;-26
2023/08/29 09:25:11;;;;;;;0.50;0.47;;;;;;;21.72;63.58;101273.28;5010307;28;101236;-26
2023/08/29 09:27:41;;;;;;;0.57;0.40;;;;;;;21.39;65.97;101275.66;5012377;28;100786;-27
2023/08/29 09:30:11;;;;;;;2.67;0.30;;;;;;;21.11;65.63;101277.53;5014223;28;96485;-27
2023/08/29 09:32:37;;;;;;;1.70;0.65;;;;;;;20.81;63.92;101274.06;5015326;28;96637;-27
2023/08/29 09:35:05;;;;;;;2.72;0.40;;;;;;;20.72;64.67;101272.22;5013398;28;98996;-27
2023/08/29 09:37:31;;;;;;;1.98;0.35;;;;;;;20.92;64.16;101265.59;5013820;28;100964;-27
2023/08/29 09:39:57;;;;;;;1.13;0.40;;;;;;;20.77;64.85;101262.47;5014803;28;96733;-28
2023/08/29 09:42:22;;;;;;;0.20;0.20;;;;;;;20.52;64.60;101265.84;5003686;28;96897;-27
2023/08/29 09:44:49;;;;;;;0.80;0.22;;;;;;;20.98;64.41;101264.13;4993667;28;101179;-26
2023/08/29 09:47:22;;;;;;;0.40;0.40;;;;;;;21.28;62.75;101262.09;4993780;28;99072;-27
2023/08/29 09:49:48;;;;;;;1.75;0.60;;;;;;;21.66;62.78;101244.44;4994086;28;96950;-26
2023/08/29 09:52:14;;;;;;;1.00;0.50;;;;;;;22.02;60.29;101259.09;4995560;28;96798;-27
2023/08/29 09:54:51;;;;;;;0.30;0.30;;;;;;;22.44;59.95;101254.78;4993607;28;100912;-26
2023/08/29 09:57:19;;;;;;;0.88;0.40;;;;;;;22.70;59.12;101257.53;4995152;28;97304;-27
2023/08/29 09:59:45;;;;;;;0.50;0.28;;;;;;;22.82;57.41;101255.38;4993143;28;97004;-26
2023/08/29 10:02:12;;;;;;;1.40;0.52;;;;;;;22.99;58.57;101250.81;4993512;28;96966;-27
2023/08/29 10:04:44;;;;;;;0.43;0.30;;;;;;;23.20;58.00;101254.00;4996537;28;101354;-26
2023/08/29 10:07:20;;;;;;;0.85;0.28;;;;;;;22.72;57.26;101246.34;4993404;28;101158;-26
2023/08/29 10:09:45;;;;;;;0.93;0.40;;;;;;;22.55;59.92;101254.53;4993486;28;96620;-27
2023/08/29 10:12:12;;;;;;;0.75;0.40;;;;;;;22.43;58.46;101250.31;4994872;28;96832;-27
2023/08/29 10:14:38;;;;;;;1.10;0.60;;;;;;;22.45;59.41;101246.34;4994642;28;97458;-27
2023/08/29 10:17:05;;;;;;;1.83;0.40;;;;;;;22.64;58.67;101250.78;4992645;28;100776;-27
2023/08/29 10:19:32;;;;;;;0.60;0.40;;;;;;;22.95;58.34;101250.22;5014582;28;96734;-26
2023/08/29 10:21:59;;;;;;;0.90;0.52;;;;;;;22.90;57.33;101244.34;5013339;28;96908;-27
2023/08/29 10:24:27;;;;;;;2.03;0.70;;;;;;;22.48;57.55;101242.41;5014279;28;97951;-27
2023/08/29 10:26:52;;;;;;;1.23;0.45;;;;;;;22.29;59.40;101239.84;5014285;28;99337;-27
2023/08/29 10:29:18;;;;;;;0.30;0.30;;;;;;;21.94;60.06;101234.19;5004146;28;97403;-27
2023/08/29 10:31:45;;;;;;;1.40;0.50;;;;;;;21.93;60.19;101235.22;4994392;28;96821;-26
2023/08/29 10:34:13;;;;;;;0.40;0.38;;;;;;;21.71;58.20;101236.56;4992736;28;100896;-26
2023/08/29 10:36:39;;;;;;;0.80;0.45;;;;;;;21.48;60.21;101238.94;4992830;28;101247;-27
2023/08/29 10:39:09;;;;;;;0.70;0.60;;;;;;;21.31;61.87;101236.97;4994110;28;96783;-27
2023/08/29 10:41:47;;;;;;;0.40;0.38;;;;;;;21.23;61.61;101240.50;4993341;28;96821;-26
2023/08/29 10:44:24;;;;;;;1.48;0.55;;;;;;;21.04;60.80;101241.47;4994177;28;98008;-27
2023/08/29 10:46:53;;;;;;;1.80;0.40;;;;;;;20.90;63.14;101239.22;4992834;28;100768;-27
2023/08/29 10:49:21;;;;;;;0.60;0.40;;;;;;;20.82;63.04;101241.88;4993737;28;96513;-27
2023/08/29 10:52:07;;;;;;;0.52;0.40;;;;;;;20.63;63.75;101235.44;4992844;28;96860;-28
2023/08/29 10:54:32;;;;;;;1.33;0.50;;;;;;;20.46;63.82;101239.81;4992825;28;100883;-27
2023/08/29 10:56:58;;;;;;;0.73;0.60;;;;;;;20.31;64.03;101225.66;4993873;28;97753;-26
2023/08/29 10:59:34;;;;;;;0.68;0.43;;;;;;;20.30;64.58;101228.53;4994084;28;96550;-26
2023/08/29 11:02:31;;;;;;;0.45;0.40;;;;;;;20.20;64.20;101249.72;4994150;28;96737;-26
2023/08/29 11:05:02;;;;;;;0.80;0.40;;;;;;;20.13;65.07;101246.69;4981454;28;98874;-28
2023/08/29 11:07:28;;;;;;;0.82;0.70;;;;;;;20.07;65.67;101241.75;4994421;28;97432;-26
2023/08/29 11:10:12;;;;;;;0.32;0.32;;;;;;;20.07;65.62;101244.50;4993998;28;96665;-27
2023/08/29 11:13:11;;;;;;;1.00;0.50;;;;;;;20.01;65.57;101234.09;4994139;28;96794;-26
2023/08/29 11:15:52;;;;;;;1.38;0.60;;;;;;;19.90;66.28;101232.38;4992843;28;99569;-27
2023/08/29 11:18:26;;;;;;;0.65;0.50;;;;;;;19.89;66.38;101238.91;4993705;28;97827;-27
2023/08/29 11:20:53;;;;;;;2.47;0.77;;;;;;;19.85;66.17;101232.81;4992472;28;96527;-26
2023/08/29 11:23:20;;;;;;;1.67;0.50;;;;;;;19.86;66.37;101228.19;4993928;28;96784;-27